sensor_id;sensor_type;location;lat;lon;timestamp;P1;durP1;ratioP1;P2;durP2;ratioP2
61471;SDS011;47337;54.068;12.114;2023-04-24T00:00:22;7.55;;;5.22;;
61471;SDS011;47337;54.068;12.114;2023-04-24T00:02:48;8.00;;;5.22;;
61471;SDS011;47337;54.068;12.114;2023-04-24T00:05:14;8.35;;;6.18;;
61471;SDS011;47337;54.068;12.114;2023-04-24T00:07:40;6.43;;;4.70;;
61471;SDS011;47337;54.068;12.114;2023-04-24T00:10:07;6.63;;;4.97;;
61471;SDS011;47337;54.068;12.114;2023-04-24T00:12:33;7.75;;;5.28;;
61471;SDS011;47337;54.068;12.114;2023-04-24T00:15:03;6.88;;;5.28;;
61471;SDS011;47337;54.068;12.114;2023-04-24T00:17:29;6.53;;;4.97;;
61471;SDS011;47337;54.068;12.114;2023-04-24T00:19:58;7.00;;;4.88;;
61471;SDS011;47337;54.068;12.114;2023-04-24T00:22:30;8.57;;;5.13;;
61471;SDS011;47337;54.068;12.114;2023-04-24T00:24:58;7.83;;;5.17;;
61471;SDS011;47337;54.068;12.114;2023-04-24T00:27:26;8.50;;;5.80;;
61471;SDS011;47337;54.068;12.114;2023-04-24T00:29:51;7.30;;;5.32;;
61471;SDS011;47337;54.068;12.114;2023-04-24T00:32:16;8.95;;;5.32;;
61471;SDS011;47337;54.068;12.114;2023-04-24T00:34:42;9.38;;;5.40;;
61471;SDS011;47337;54.068;12.114;2023-04-24T00:37:08;6.93;;;5.15;;
61471;SDS011;47337;54.068;12.114;2023-04-24T00:39:33;7.45;;;5.18;;
61471;SDS011;47337;54.068;12.114;2023-04-24T00:41:59;6.32;;;4.57;;
61471;SDS011;47337;54.068;12.114;2023-04-24T00:44:24;6.68;;;4.90;;
61471;SDS011;47337;54.068;12.114;2023-04-24T00:46:50;5.85;;;4.50;;
61471;SDS011;47337;54.068;12.114;2023-04-24T00:49:21;6.30;;;4.35;;
61471;SDS011;47337;54.068;12.114;2023-04-24T00:51:49;7.72;;;5.05;;
61471;SDS011;47337;54.068;12.114;2023-04-24T00:54:17;7.65;;;4.68;;
61471;SDS011;47337;54.068;12.114;2023-04-24T00:56:43;6.63;;;4.55;;
61471;SDS011;47337;54.068;12.114;2023-04-24T00:59:09;5.88;;;4.60;;
61471;SDS011;47337;54.068;12.114;2023-04-24T01:01:36;6.75;;;4.50;;
61471;SDS011;47337;54.068;12.114;2023-04-24T01:04:02;7.68;;;4.40;;
61471;SDS011;47337;54.068;12.114;2023-04-24T01:06:28;7.05;;;4.40;;
61471;SDS011;47337;54.068;12.114;2023-04-24T01:08:56;7.05;;;4.60;;
61471;SDS011;47337;54.068;12.114;2023-04-24T01:11:23;6.75;;;5.00;;
61471;SDS011;47337;54.068;12.114;2023-04-24T01:13:49;7.22;;;5.40;;
61471;SDS011;47337;54.068;12.114;2023-04-24T01:16:18;8.57;;;5.20;;
61471;SDS011;47337;54.068;12.114;2023-04-24T01:18:45;6.03;;;4.70;;
61471;SDS011;47337;54.068;12.114;2023-04-24T01:21:11;5.88;;;4.40;;
61471;SDS011;47337;54.068;12.114;2023-04-24T01:23:39;6.10;;;4.63;;
61471;SDS011;47337;54.068;12.114;2023-04-24T01:26:05;5.72;;;4.57;;
61471;SDS011;47337;54.068;12.114;2023-04-24T01:28:30;9.70;;;5.15;;
61471;SDS011;47337;54.068;12.114;2023-04-24T01:30:56;5.18;;;4.25;;
61471;SDS011;47337;54.068;12.114;2023-04-24T01:33:21;5.68;;;4.40;;
61471;SDS011;47337;54.068;12.114;2023-04-24T01:35:48;4.72;;;3.97;;
61471;SDS011;47337;54.068;12.114;2023-04-24T01:38:16;4.88;;;4.10;;
61471;SDS011;47337;54.068;12.114;2023-04-24T01:40:44;7.35;;;4.97;;
61471;SDS011;47337;54.068;12.114;2023-04-24T01:43:10;6.68;;;4.72;;
61471;SDS011;47337;54.068;12.114;2023-04-24T01:45:36;9.32;;;4.47;;
61471;SDS011;47337;54.068;12.114;2023-04-24T01:48:02;6.28;;;4.65;;
61471;SDS011;47337;54.068;12.114;2023-04-24T01:50:32;7.75;;;4.30;;
61471;SDS011;47337;54.068;12.114;2023-04-24T01:52:58;7.40;;;4.65;;
61471;SDS011;47337;54.068;12.114;2023-04-24T01:55:23;7.43;;;4.50;;
61471;SDS011;47337;54.068;12.114;2023-04-24T01:57:49;6.07;;;4.50;;
61471;SDS011;47337;54.068;12.114;2023-04-24T02:00:15;7.05;;;4.43;;
61471;SDS011;47337;54.068;12.114;2023-04-24T02:02:40;8.10;;;4.88;;
61471;SDS011;47337;54.068;12.114;2023-04-24T02:05:07;7.03;;;4.50;;
61471;SDS011;47337;54.068;12.114;2023-04-24T02:07:33;7.88;;;5.10;;
61471;SDS011;47337;54.068;12.114;2023-04-24T02:09:58;8.55;;;4.60;;
61471;SDS011;47337;54.068;12.114;2023-04-24T02:12:26;7.68;;;4.97;;
61471;SDS011;47337;54.068;12.114;2023-04-24T02:14:52;8.23;;;5.07;;
61471;SDS011;47337;54.068;12.114;2023-04-24T02:17:19;6.70;;;5.07;;
61471;SDS011;47337;54.068;12.114;2023-04-24T02:19:47;9.57;;;4.88;;
61471;SDS011;47337;54.068;12.114;2023-04-24T02:22:16;8.05;;;4.82;;
61471;SDS011;47337;54.068;12.114;2023-04-24T02:24:41;7.35;;;5.20;;
61471;SDS011;47337;54.068;12.114;2023-04-24T02:27:09;7.43;;;5.03;;
61471;SDS011;47337;54.068;12.114;2023-04-24T02:29:37;6.93;;;5.22;;
61471;SDS011;47337;54.068;12.114;2023-04-24T02:32:03;9.27;;;5.93;;
61471;SDS011;47337;54.068;12.114;2023-04-24T02:34:28;6.60;;;5.20;;
61471;SDS011;47337;54.068;12.114;2023-04-24T02:36:56;7.18;;;5.35;;
61471;SDS011;47337;54.068;12.114;2023-04-24T02:39:21;8.85;;;5.88;;
61471;SDS011;47337;54.068;12.114;2023-04-24T02:41:49;7.90;;;5.63;;
61471;SDS011;47337;54.068;12.114;2023-04-24T02:44:15;9.90;;;5.70;;
61471;SDS011;47337;54.068;12.114;2023-04-24T02:46:42;9.05;;;5.47;;
61471;SDS011;47337;54.068;12.114;2023-04-24T02:49:07;7.78;;;5.20;;
61471;SDS011;47337;54.068;12.114;2023-04-24T02:51:33;8.30;;;5.88;;
61471;SDS011;47337;54.068;12.114;2023-04-24T02:54:03;7.70;;;5.75;;
61471;SDS011;47337;54.068;12.114;2023-04-24T02:56:28;7.82;;;5.72;;
61471;SDS011;47337;54.068;12.114;2023-04-24T02:58:53;8.43;;;5.43;;
61471;SDS011;47337;54.068;12.114;2023-04-24T03:01:21;7.03;;;5.40;;
61471;SDS011;47337;54.068;12.114;2023-04-24T03:03:47;7.15;;;5.22;;
61471;SDS011;47337;54.068;12.114;2023-04-24T03:06:15;7.13;;;4.85;;
61471;SDS011;47337;54.068;12.114;2023-04-24T03:08:41;9.43;;;5.57;;
61471;SDS011;47337;54.068;12.114;2023-04-24T03:11:06;7.53;;;5.68;;
61471;SDS011;47337;54.068;12.114;2023-04-24T03:13:34;7.10;;;4.93;;
61471;SDS011;47337;54.068;12.114;2023-04-24T03:16:02;6.90;;;5.22;;
61471;SDS011;47337;54.068;12.114;2023-04-24T03:18:27;7.32;;;5.40;;
61471;SDS011;47337;54.068;12.114;2023-04-24T03:20:52;9.43;;;5.80;;
61471;SDS011;47337;54.068;12.114;2023-04-24T03:23:20;6.03;;;5.10;;
61471;SDS011;47337;54.068;12.114;2023-04-24T03:25:48;7.38;;;5.07;;
61471;SDS011;47337;54.068;12.114;2023-04-24T03:28:16;6.63;;;5.15;;
61471;SDS011;47337;54.068;12.114;2023-04-24T03:30:44;6.55;;;5.35;;
61471;SDS011;47337;54.068;12.114;2023-04-24T03:33:12;8.20;;;5.90;;
61471;SDS011;47337;54.068;12.114;2023-04-24T03:35:37;7.00;;;5.25;;
61471;SDS011;47337;54.068;12.114;2023-04-24T03:38:03;6.50;;;5.13;;
61471;SDS011;47337;54.068;12.114;2023-04-24T03:40:29;6.38;;;5.45;;
61471;SDS011;47337;54.068;12.114;2023-04-24T03:42:55;7.10;;;5.20;;
61471;SDS011;47337;54.068;12.114;2023-04-24T03:45:23;7.40;;;5.35;;
61471;SDS011;47337;54.068;12.114;2023-04-24T03:47:49;7.00;;;5.40;;
61471;SDS011;47337;54.068;12.114;2023-04-24T03:50:16;9.00;;;5.47;;
61471;SDS011;47337;54.068;12.114;2023-04-24T03:52:42;7.15;;;5.40;;
61471;SDS011;47337;54.068;12.114;2023-04-24T03:55:07;6.93;;;5.40;;
61471;SDS011;47337;54.068;12.114;2023-04-24T03:57:33;8.70;;;5.57;;
61471;SDS011;47337;54.068;12.114;2023-04-24T04:00:01;8.30;;;5.60;;
61471;SDS011;47337;54.068;12.114;2023-04-24T04:02:29;7.75;;;5.50;;
61471;SDS011;47337;54.068;12.114;2023-04-24T04:04:54;6.90;;;5.65;;
61471;SDS011;47337;54.068;12.114;2023-04-24T04:07:20;7.75;;;6.05;;
61471;SDS011;47337;54.068;12.114;2023-04-24T04:09:45;10.45;;;6.10;;
61471;SDS011;47337;54.068;12.114;2023-04-24T04:12:10;8.00;;;5.72;;
61471;SDS011;47337;54.068;12.114;2023-04-24T04:14:38;8.75;;;5.47;;
61471;SDS011;47337;54.068;12.114;2023-04-24T04:17:06;8.57;;;6.78;;
61471;SDS011;47337;54.068;12.114;2023-04-24T04:19:31;10.30;;;5.72;;
61471;SDS011;47337;54.068;12.114;2023-04-24T04:21:59;6.68;;;5.53;;
61471;SDS011;47337;54.068;12.114;2023-04-24T04:24:24;7.82;;;5.72;;
61471;SDS011;47337;54.068;12.114;2023-04-24T04:26:51;7.53;;;5.93;;
61471;SDS011;47337;54.068;12.114;2023-04-24T04:29:17;10.07;;;6.20;;
61471;SDS011;47337;54.068;12.114;2023-04-24T04:31:47;9.95;;;6.40;;
61471;SDS011;47337;54.068;12.114;2023-04-24T04:34:13;8.73;;;5.57;;
61471;SDS011;47337;54.068;12.114;2023-04-24T04:36:39;8.27;;;5.05;;
61471;SDS011;47337;54.068;12.114;2023-04-24T04:39:08;7.47;;;5.55;;
61471;SDS011;47337;54.068;12.114;2023-04-24T04:41:36;6.75;;;5.25;;
61471;SDS011;47337;54.068;12.114;2023-04-24T04:44:02;7.57;;;5.70;;
61471;SDS011;47337;54.068;12.114;2023-04-24T04:46:29;8.15;;;5.75;;
61471;SDS011;47337;54.068;12.114;2023-04-24T04:49:00;6.85;;;5.32;;
61471;SDS011;47337;54.068;12.114;2023-04-24T04:51:26;7.35;;;5.55;;
61471;SDS011;47337;54.068;12.114;2023-04-24T04:53:52;7.25;;;5.53;;
61471;SDS011;47337;54.068;12.114;2023-04-24T04:56:20;8.65;;;5.63;;
61471;SDS011;47337;54.068;12.114;2023-04-24T04:58:45;9.15;;;5.20;;
61471;SDS011;47337;54.068;12.114;2023-04-24T05:01:11;8.65;;;5.65;;
61471;SDS011;47337;54.068;12.114;2023-04-24T05:03:36;6.28;;;5.13;;
61471;SDS011;47337;54.068;12.114;2023-04-24T05:06:01;6.82;;;5.32;;
61471;SDS011;47337;54.068;12.114;2023-04-24T05:08:29;7.63;;;5.50;;
61471;SDS011;47337;54.068;12.114;2023-04-24T05:10:57;8.00;;;5.68;;
61471;SDS011;47337;54.068;12.114;2023-04-24T05:13:27;6.55;;;4.97;;
61471;SDS011;47337;54.068;12.114;2023-04-24T05:15:53;5.93;;;5.13;;
61471;SDS011;47337;54.068;12.114;2023-04-24T05:18:18;10.32;;;5.85;;
61471;SDS011;47337;54.068;12.114;2023-04-24T05:20:44;6.65;;;5.35;;
61471;SDS011;47337;54.068;12.114;2023-04-24T05:23:12;7.82;;;5.50;;
61471;SDS011;47337;54.068;12.114;2023-04-24T05:25:37;6.60;;;5.70;;
61471;SDS011;47337;54.068;12.114;2023-04-24T05:28:05;8.13;;;5.20;;
61471;SDS011;47337;54.068;12.114;2023-04-24T05:30:30;6.43;;;5.22;;
61471;SDS011;47337;54.068;12.114;2023-04-24T05:32:56;7.97;;;5.57;;
61471;SDS011;47337;54.068;12.114;2023-04-24T05:35:21;5.68;;;4.90;;
61471;SDS011;47337;54.068;12.114;2023-04-24T05:37:49;8.77;;;5.72;;
61471;SDS011;47337;54.068;12.114;2023-04-24T05:40:15;6.55;;;5.45;;
61471;SDS011;47337;54.068;12.114;2023-04-24T05:42:40;6.05;;;4.43;;
61471;SDS011;47337;54.068;12.114;2023-04-24T05:45:06;7.65;;;4.97;;
61471;SDS011;47337;54.068;12.114;2023-04-24T05:47:39;4.43;;;3.88;;
61471;SDS011;47337;54.068;12.114;2023-04-24T05:50:05;5.78;;;4.78;;
61471;SDS011;47337;54.068;12.114;2023-04-24T05:52:33;4.78;;;4.22;;
61471;SDS011;47337;54.068;12.114;2023-04-24T05:54:58;6.20;;;4.53;;
61471;SDS011;47337;54.068;12.114;2023-04-24T05:57:26;5.25;;;4.28;;
61471;SDS011;47337;54.068;12.114;2023-04-24T05:59:52;4.90;;;4.38;;
61471;SDS011;47337;54.068;12.114;2023-04-24T06:02:20;7.10;;;4.40;;
61471;SDS011;47337;54.068;12.114;2023-04-24T06:04:48;5.50;;;4.40;;
61471;SDS011;47337;54.068;12.114;2023-04-24T06:07:13;6.57;;;4.60;;
61471;SDS011;47337;54.068;12.114;2023-04-24T06:09:39;5.20;;;3.92;;
61471;SDS011;47337;54.068;12.114;2023-04-24T06:12:04;6.38;;;4.18;;
61471;SDS011;47337;54.068;12.114;2023-04-24T06:14:32;5.30;;;3.88;;
61471;SDS011;47337;54.068;12.114;2023-04-24T06:16:57;5.65;;;3.67;;
61471;SDS011;47337;54.068;12.114;2023-04-24T06:19:26;5.45;;;3.80;;
61471;SDS011;47337;54.068;12.114;2023-04-24T06:21:52;4.30;;;3.90;;
61471;SDS011;47337;54.068;12.114;2023-04-24T06:24:17;6.35;;;4.28;;
61471;SDS011;47337;54.068;12.114;2023-04-24T06:26:42;5.68;;;3.42;;
61471;SDS011;47337;54.068;12.114;2023-04-24T06:29:08;3.80;;;3.42;;
61471;SDS011;47337;54.068;12.114;2023-04-24T06:31:33;4.88;;;3.20;;
61471;SDS011;47337;54.068;12.114;2023-04-24T06:34:02;3.80;;;3.40;;
61471;SDS011;47337;54.068;12.114;2023-04-24T06:36:28;3.25;;;2.67;;
61471;SDS011;47337;54.068;12.114;2023-04-24T06:38:56;3.63;;;2.78;;
61471;SDS011;47337;54.068;12.114;2023-04-24T06:41:22;3.10;;;2.80;;
61471;SDS011;47337;54.068;12.114;2023-04-24T06:43:47;2.65;;;2.45;;
61471;SDS011;47337;54.068;12.114;2023-04-24T06:46:15;3.90;;;2.60;;
61471;SDS011;47337;54.068;12.114;2023-04-24T06:48:40;3.17;;;2.33;;
61471;SDS011;47337;54.068;12.114;2023-04-24T06:51:09;2.50;;;2.30;;
61471;SDS011;47337;54.068;12.114;2023-04-24T06:53:35;2.92;;;2.33;;
61471;SDS011;47337;54.068;12.114;2023-04-24T06:56:00;2.75;;;2.08;;
61471;SDS011;47337;54.068;12.114;2023-04-24T06:58:26;3.15;;;2.53;;
61471;SDS011;47337;54.068;12.114;2023-04-24T07:00:51;4.00;;;2.50;;
61471;SDS011;47337;54.068;12.114;2023-04-24T07:03:16;2.80;;;2.10;;
61471;SDS011;47337;54.068;12.114;2023-04-24T07:05:42;2.55;;;2.00;;
61471;SDS011;47337;54.068;12.114;2023-04-24T07:08:07;2.13;;;1.80;;
61471;SDS011;47337;54.068;12.114;2023-04-24T07:10:36;2.08;;;1.88;;
61471;SDS011;47337;54.068;12.114;2023-04-24T07:13:01;7.63;;;2.72;;
61471;SDS011;47337;54.068;12.114;2023-04-24T07:15:29;1.80;;;1.70;;
61471;SDS011;47337;54.068;12.114;2023-04-24T07:17:57;3.05;;;1.90;;
61471;SDS011;47337;54.068;12.114;2023-04-24T07:20:25;2.78;;;1.90;;
61471;SDS011;47337;54.068;12.114;2023-04-24T07:22:53;3.05;;;1.73;;
61471;SDS011;47337;54.068;12.114;2023-04-24T07:25:20;1.92;;;1.70;;
61471;SDS011;47337;54.068;12.114;2023-04-24T07:27:48;4.60;;;2.05;;
61471;SDS011;47337;54.068;12.114;2023-04-24T07:30:16;2.92;;;1.80;;
61471;SDS011;47337;54.068;12.114;2023-04-24T07:32:41;1.70;;;1.60;;
61471;SDS011;47337;54.068;12.114;2023-04-24T07:35:07;2.25;;;1.70;;
61471;SDS011;47337;54.068;12.114;2023-04-24T07:37:37;1.63;;;1.42;;
61471;SDS011;47337;54.068;12.114;2023-04-24T07:40:05;2.17;;;1.65;;
61471;SDS011;47337;54.068;12.114;2023-04-24T07:42:33;1.65;;;1.55;;
61471;SDS011;47337;54.068;12.114;2023-04-24T07:44:59;3.47;;;1.50;;
61471;SDS011;47337;54.068;12.114;2023-04-24T07:47:27;1.40;;;1.30;;
61471;SDS011;47337;54.068;12.114;2023-04-24T07:49:52;1.38;;;1.27;;
61471;SDS011;47337;54.068;12.114;2023-04-24T07:52:18;1.20;;;1.10;;
61471;SDS011;47337;54.068;12.114;2023-04-24T07:54:45;1.50;;;1.20;;
61471;SDS011;47337;54.068;12.114;2023-04-24T07:57:14;1.80;;;1.20;;
61471;SDS011;47337;54.068;12.114;2023-04-24T07:59:40;1.33;;;1.20;;
61471;SDS011;47337;54.068;12.114;2023-04-24T08:02:05;1.10;;;1.00;;
61471;SDS011;47337;54.068;12.114;2023-04-24T08:04:31;3.08;;;1.30;;
61471;SDS011;47337;54.068;12.114;2023-04-24T08:06:57;4.10;;;1.30;;
61471;SDS011;47337;54.068;12.114;2023-04-24T08:09:22;2.10;;;1.55;;
61471;SDS011;47337;54.068;12.114;2023-04-24T08:11:48;2.30;;;1.58;;
61471;SDS011;47337;54.068;12.114;2023-04-24T08:14:13;2.15;;;1.20;;
61471;SDS011;47337;54.068;12.114;2023-04-24T08:16:41;1.80;;;1.30;;
61471;SDS011;47337;54.068;12.114;2023-04-24T08:19:08;1.80;;;1.40;;
61471;SDS011;47337;54.068;12.114;2023-04-24T08:21:36;1.55;;;1.30;;
61471;SDS011;47337;54.068;12.114;2023-04-24T08:24:02;2.40;;;1.35;;
61471;SDS011;47337;54.068;12.114;2023-04-24T08:26:30;1.20;;;1.10;;
61471;SDS011;47337;54.068;12.114;2023-04-24T08:28:58;2.55;;;1.40;;
61471;SDS011;47337;54.068;12.114;2023-04-24T08:31:23;1.83;;;1.10;;
61471;SDS011;47337;54.068;12.114;2023-04-24T08:33:50;1.35;;;0.93;;
61471;SDS011;47337;54.068;12.114;2023-04-24T08:36:15;1.40;;;1.20;;
61471;SDS011;47337;54.068;12.114;2023-04-24T08:38:43;2.00;;;1.10;;
61471;SDS011;47337;54.068;12.114;2023-04-24T08:41:11;1.33;;;1.10;;
61471;SDS011;47337;54.068;12.114;2023-04-24T08:43:43;1.00;;;0.93;;
61471;SDS011;47337;54.068;12.114;2023-04-24T08:46:08;2.25;;;0.90;;
61471;SDS011;47337;54.068;12.114;2023-04-24T08:48:35;2.47;;;1.02;;
61471;SDS011;47337;54.068;12.114;2023-04-24T08:51:01;1.48;;;0.98;;
61471;SDS011;47337;54.068;12.114;2023-04-24T08:53:30;1.35;;;1.10;;
61471;SDS011;47337;54.068;12.114;2023-04-24T08:55:57;3.28;;;0.93;;
61471;SDS011;47337;54.068;12.114;2023-04-24T08:58:26;0.93;;;0.90;;
61471;SDS011;47337;54.068;12.114;2023-04-24T09:00:55;1.70;;;1.08;;
61471;SDS011;47337;54.068;12.114;2023-04-24T09:03:26;0.60;;;0.60;;
61471;SDS011;47337;54.068;12.114;2023-04-24T09:05:57;1.05;;;1.00;;
61471;SDS011;47337;54.068;12.114;2023-04-24T09:08:24;1.17;;;1.08;;
61471;SDS011;47337;54.068;12.114;2023-04-24T09:10:53;1.50;;;1.17;;
61471;SDS011;47337;54.068;12.114;2023-04-24T09:13:19;0.98;;;0.98;;
61471;SDS011;47337;54.068;12.114;2023-04-24T09:15:45;1.13;;;1.02;;
61471;SDS011;47337;54.068;12.114;2023-04-24T09:18:10;1.30;;;1.00;;
61471;SDS011;47337;54.068;12.114;2023-04-24T09:21:00;1.52;;;0.88;;
61471;SDS011;47337;54.068;12.114;2023-04-24T09:23:31;1.80;;;0.80;;
61471;SDS011;47337;54.068;12.114;2023-04-24T09:25:57;1.67;;;0.73;;
61471;SDS011;47337;54.068;12.114;2023-04-24T09:28:46;1.20;;;1.10;;
61471;SDS011;47337;54.068;12.114;2023-04-24T09:31:15;1.27;;;1.00;;
61471;SDS011;47337;54.068;12.114;2023-04-24T09:34:02;2.10;;;1.10;;
61471;SDS011;47337;54.068;12.114;2023-04-24T09:36:33;0.80;;;0.80;;
61471;SDS011;47337;54.068;12.114;2023-04-24T09:39:02;1.05;;;0.90;;
61471;SDS011;47337;54.068;12.114;2023-04-24T09:41:33;1.05;;;1.00;;
61471;SDS011;47337;54.068;12.114;2023-04-24T09:44:10;0.90;;;0.90;;
61471;SDS011;47337;54.068;12.114;2023-04-24T09:46:55;2.33;;;1.10;;
61471;SDS011;47337;54.068;12.114;2023-04-24T09:51:51;1.20;;;1.10;;
61471;SDS011;47337;54.068;12.114;2023-04-24T09:54:17;1.92;;;1.27;;
61471;SDS011;47337;54.068;12.114;2023-04-24T09:56:48;1.85;;;1.23;;
61471;SDS011;47337;54.068;12.114;2023-04-24T09:59:15;2.30;;;0.90;;
61471;SDS011;47337;54.068;12.114;2023-04-24T10:01:43;1.05;;;0.90;;
61471;SDS011;47337;54.068;12.114;2023-04-24T10:06:53;1.70;;;1.08;;
61471;SDS011;47337;54.068;12.114;2023-04-24T10:09:23;2.38;;;1.08;;
61471;SDS011;47337;54.068;12.114;2023-04-24T10:11:51;3.47;;;1.30;;
61471;SDS011;47337;54.068;12.114;2023-04-24T10:14:21;1.15;;;0.95;;
61471;SDS011;47337;54.068;12.114;2023-04-24T10:16:54;1.27;;;0.90;;
61471;SDS011;47337;54.068;12.114;2023-04-24T10:19:24;1.58;;;0.90;;
61471;SDS011;47337;54.068;12.114;2023-04-24T10:21:53;1.25;;;0.90;;
61471;SDS011;47337;54.068;12.114;2023-04-24T10:24:20;1.13;;;1.02;;
61471;SDS011;47337;54.068;12.114;2023-04-24T10:26:48;1.25;;;1.00;;
61471;SDS011;47337;54.068;12.114;2023-04-24T10:29:17;1.10;;;1.00;;
61471;SDS011;47337;54.068;12.114;2023-04-24T10:31:46;1.38;;;0.90;;
61471;SDS011;47337;54.068;12.114;2023-04-24T10:34:12;1.35;;;1.00;;
61471;SDS011;47337;54.068;12.114;2023-04-24T10:36:40;1.00;;;0.90;;
61471;SDS011;47337;54.068;12.114;2023-04-24T10:39:11;1.65;;;1.00;;
61471;SDS011;47337;54.068;12.114;2023-04-24T10:41:39;0.88;;;0.77;;
61471;SDS011;47337;54.068;12.114;2023-04-24T10:44:08;1.58;;;0.80;;
61471;SDS011;47337;54.068;12.114;2023-04-24T10:46:38;2.17;;;0.70;;
61471;SDS011;47337;54.068;12.114;2023-04-24T10:49:09;1.27;;;0.60;;
61471;SDS011;47337;54.068;12.114;2023-04-24T10:56:50;1.23;;;0.88;;
61471;SDS011;47337;54.068;12.114;2023-04-24T10:59:27;1.67;;;1.13;;
61471;SDS011;47337;54.068;12.114;2023-04-24T11:02:00;1.10;;;0.80;;
61471;SDS011;47337;54.068;12.114;2023-04-24T11:04:29;1.60;;;0.95;;
61471;SDS011;47337;54.068;12.114;2023-04-24T11:06:56;1.10;;;0.90;;
61471;SDS011;47337;54.068;12.114;2023-04-24T11:09:22;0.95;;;0.75;;
61471;SDS011;47337;54.068;12.114;2023-04-24T11:11:53;1.95;;;1.00;;
61471;SDS011;47337;54.068;12.114;2023-04-24T11:17:33;1.75;;;1.13;;
61471;SDS011;47337;54.068;12.114;2023-04-24T11:20:03;1.15;;;0.82;;
61471;SDS011;47337;54.068;12.114;2023-04-24T11:22:29;0.80;;;0.80;;
61471;SDS011;47337;54.068;12.114;2023-04-24T11:24:58;2.05;;;0.95;;
61471;SDS011;47337;54.068;12.114;2023-04-24T11:27:29;1.30;;;0.90;;
61471;SDS011;47337;54.068;12.114;2023-04-24T11:32:29;1.08;;;0.93;;
61471;SDS011;47337;54.068;12.114;2023-04-24T11:37:37;1.95;;;0.77;;
61471;SDS011;47337;54.068;12.114;2023-04-24T11:40:04;1.85;;;0.68;;
61471;SDS011;47337;54.068;12.114;2023-04-24T11:42:45;1.48;;;0.70;;
61471;SDS011;47337;54.068;12.114;2023-04-24T11:45:16;0.98;;;0.70;;
61471;SDS011;47337;54.068;12.114;2023-04-24T11:47:44;0.70;;;0.70;;
61471;SDS011;47337;54.068;12.114;2023-04-24T11:50:18;1.08;;;0.80;;
61471;SDS011;47337;54.068;12.114;2023-04-24T11:52:47;3.97;;;0.82;;
61471;SDS011;47337;54.068;12.114;2023-04-24T11:57:48;1.00;;;0.90;;
61471;SDS011;47337;54.068;12.114;2023-04-24T12:00:22;1.15;;;0.80;;
61471;SDS011;47337;54.068;12.114;2023-04-24T12:02:49;0.95;;;0.52;;
61471;SDS011;47337;54.068;12.114;2023-04-24T12:05:25;0.73;;;0.60;;
61471;SDS011;47337;54.068;12.114;2023-04-24T12:07:52;0.70;;;0.70;;
61471;SDS011;47337;54.068;12.114;2023-04-24T12:10:22;0.80;;;0.70;;
61471;SDS011;47337;54.068;12.114;2023-04-24T12:12:49;0.63;;;0.63;;
61471;SDS011;47337;54.068;12.114;2023-04-24T12:15:16;1.17;;;0.57;;
61471;SDS011;47337;54.068;12.114;2023-04-24T12:17:42;0.45;;;0.45;;
61471;SDS011;47337;54.068;12.114;2023-04-24T12:20:08;0.43;;;0.43;;
61471;SDS011;47337;54.068;12.114;2023-04-24T12:22:47;0.50;;;0.50;;
61471;SDS011;47337;54.068;12.114;2023-04-24T12:25:19;0.90;;;0.50;;
61471;SDS011;47337;54.068;12.114;2023-04-24T12:27:46;0.82;;;0.68;;
61471;SDS011;47337;54.068;12.114;2023-04-24T12:30:16;1.58;;;0.80;;
61471;SDS011;47337;54.068;12.114;2023-04-24T12:32:46;0.68;;;0.68;;
61471;SDS011;47337;54.068;12.114;2023-04-24T12:35:22;1.27;;;0.65;;
61471;SDS011;47337;54.068;12.114;2023-04-24T12:37:51;1.17;;;0.80;;
61471;SDS011;47337;54.068;12.114;2023-04-24T12:40:17;1.05;;;0.80;;
61471;SDS011;47337;54.068;12.114;2023-04-24T12:42:45;4.28;;;0.95;;
61471;SDS011;47337;54.068;12.114;2023-04-24T12:45:11;0.93;;;0.90;;
61471;SDS011;47337;54.068;12.114;2023-04-24T12:47:41;1.60;;;1.00;;
61471;SDS011;47337;54.068;12.114;2023-04-24T12:50:07;3.42;;;1.20;;
61471;SDS011;47337;54.068;12.114;2023-04-24T12:52:37;1.55;;;1.30;;
61471;SDS011;47337;54.068;12.114;2023-04-24T12:55:05;1.20;;;0.98;;
61471;SDS011;47337;54.068;12.114;2023-04-24T12:57:34;0.80;;;0.80;;
61471;SDS011;47337;54.068;12.114;2023-04-24T13:00:03;0.80;;;0.80;;
61471;SDS011;47337;54.068;12.114;2023-04-24T13:02:32;1.23;;;0.90;;
61471;SDS011;47337;54.068;12.114;2023-04-24T13:04:58;0.85;;;0.73;;
61471;SDS011;47337;54.068;12.114;2023-04-24T13:07:25;1.65;;;0.60;;
61471;SDS011;47337;54.068;12.114;2023-04-24T13:09:53;0.73;;;0.60;;
61471;SDS011;47337;54.068;12.114;2023-04-24T13:12:22;0.90;;;0.63;;
61471;SDS011;47337;54.068;12.114;2023-04-24T13:14:49;1.00;;;0.90;;
61471;SDS011;47337;54.068;12.114;2023-04-24T13:17:14;1.42;;;1.08;;
61471;SDS011;47337;54.068;12.114;2023-04-24T13:19:40;2.08;;;1.23;;
61471;SDS011;47337;54.068;12.114;2023-04-24T13:22:09;1.52;;;1.00;;
61471;SDS011;47337;54.068;12.114;2023-04-24T13:24:36;2.88;;;1.20;;
61471;SDS011;47337;54.068;12.114;2023-04-24T13:27:02;2.20;;;0.98;;
61471;SDS011;47337;54.068;12.114;2023-04-24T13:29:31;0.93;;;0.85;;
61471;SDS011;47337;54.068;12.114;2023-04-24T13:31:59;1.15;;;1.05;;
61471;SDS011;47337;54.068;12.114;2023-04-24T13:34:25;1.45;;;0.88;;
61471;SDS011;47337;54.068;12.114;2023-04-24T13:36:54;2.25;;;1.10;;
61471;SDS011;47337;54.068;12.114;2023-04-24T13:39:21;2.97;;;1.17;;
61471;SDS011;47337;54.068;12.114;2023-04-24T13:41:47;1.60;;;1.30;;
61471;SDS011;47337;54.068;12.114;2023-04-24T13:44:16;1.42;;;1.25;;
61471;SDS011;47337;54.068;12.114;2023-04-24T13:46:43;2.13;;;1.15;;
61471;SDS011;47337;54.068;12.114;2023-04-24T13:49:10;1.40;;;1.30;;
61471;SDS011;47337;54.068;12.114;2023-04-24T13:51:40;1.67;;;1.38;;
61471;SDS011;47337;54.068;12.114;2023-04-24T13:54:07;2.53;;;2.00;;
61471;SDS011;47337;54.068;12.114;2023-04-24T13:56:35;2.15;;;1.80;;
61471;SDS011;47337;54.068;12.114;2023-04-24T13:59:00;4.13;;;1.60;;
61471;SDS011;47337;54.068;12.114;2023-04-24T14:01:26;2.38;;;1.73;;
61471;SDS011;47337;54.068;12.114;2023-04-24T14:03:54;1.83;;;1.50;;
61471;SDS011;47337;54.068;12.114;2023-04-24T14:06:20;3.10;;;2.10;;
61471;SDS011;47337;54.068;12.114;2023-04-24T14:08:46;2.22;;;1.40;;
61471;SDS011;47337;54.068;12.114;2023-04-24T14:11:14;2.13;;;1.63;;
61471;SDS011;47337;54.068;12.114;2023-04-24T14:13:43;2.55;;;1.88;;
61471;SDS011;47337;54.068;12.114;2023-04-24T14:16:09;3.58;;;2.13;;
61471;SDS011;47337;54.068;12.114;2023-04-24T14:18:37;2.58;;;2.00;;
61471;SDS011;47337;54.068;12.114;2023-04-24T14:21:03;3.33;;;2.70;;
61471;SDS011;47337;54.068;12.114;2023-04-24T14:23:29;2.20;;;2.00;;
61471;SDS011;47337;54.068;12.114;2023-04-24T14:25:57;2.45;;;2.17;;
61471;SDS011;47337;54.068;12.114;2023-04-24T14:28:23;2.78;;;2.47;;
61471;SDS011;47337;54.068;12.114;2023-04-24T14:30:49;2.75;;;2.42;;
61471;SDS011;47337;54.068;12.114;2023-04-24T14:33:14;2.67;;;2.47;;
61471;SDS011;47337;54.068;12.114;2023-04-24T14:35:42;4.63;;;2.60;;
61471;SDS011;47337;54.068;12.114;2023-04-24T14:38:08;3.30;;;2.67;;
61471;SDS011;47337;54.068;12.114;2023-04-24T14:40:34;2.65;;;2.42;;
61471;SDS011;47337;54.068;12.114;2023-04-24T14:43:00;2.72;;;2.47;;
61471;SDS011;47337;54.068;12.114;2023-04-24T14:45:28;3.80;;;2.53;;
61471;SDS011;47337;54.068;12.114;2023-04-24T14:47:54;3.95;;;2.60;;
61471;SDS011;47337;54.068;12.114;2023-04-24T14:50:22;3.72;;;3.17;;
61471;SDS011;47337;54.068;12.114;2023-04-24T14:52:52;3.53;;;2.90;;
61471;SDS011;47337;54.068;12.114;2023-04-24T14:55:18;3.10;;;2.78;;